createdAt,value
2022-11-07T00:01:01.078Z,6.40
2022-11-07T00:03:32.601Z,6.42
2022-11-07T00:06:04.476Z,6.47
2022-11-07T00:08:36.091Z,6.53
2022-11-07T00:11:08.063Z,6.56
2022-11-07T00:13:39.598Z,6.57
2022-11-07T00:16:11.426Z,6.55
2022-11-07T00:18:43.008Z,6.57
2022-11-07T00:21:14.608Z,6.58
2022-11-07T00:23:46.210Z,6.54
2022-11-07T00:26:17.825Z,6.49
2022-11-07T00:28:49.620Z,6.51
2022-11-07T00:31:21.182Z,6.51
2022-11-07T00:33:52.907Z,6.50
2022-11-07T00:36:27.583Z,6.44
2022-11-07T00:39:00.812Z,6.41
2022-11-07T00:41:33.133Z,6.36
2022-11-07T00:44:05.136Z,6.21
2022-11-07T00:46:36.745Z,6.13
2022-11-07T00:49:08.310Z,6.14
2022-11-07T00:51:39.912Z,6.20
2022-11-07T00:54:11.494Z,6.12
2022-11-07T00:56:43.138Z,6.14
2022-11-07T00:59:14.684Z,6.06
2022-11-07T01:01:46.359Z,6.06
2022-11-07T01:04:36.454Z,6.14
2022-11-07T01:07:08.080Z,6.21
2022-11-07T01:09:39.738Z,6.21
2022-11-07T01:12:11.342Z,6.23
2022-11-07T01:14:42.923Z,6.28
2022-11-07T01:17:14.472Z,6.34
2022-11-07T01:19:46.001Z,6.36
2022-11-07T01:22:17.583Z,6.41
2022-11-07T01:24:49.178Z,6.45
2022-11-07T01:27:20.734Z,6.48
2022-11-07T01:29:52.318Z,6.46
2022-11-07T01:32:23.906Z,6.44
2022-11-07T01:34:55.528Z,6.46
2022-11-07T01:37:27.098Z,6.51
2022-11-07T01:39:58.647Z,6.52
2022-11-07T01:42:30.223Z,6.53
2022-11-07T01:45:01.764Z,6.55
2022-11-07T01:47:38.702Z,6.63
2022-11-07T01:50:10.634Z,6.70
2022-11-07T01:52:44.913Z,6.76
2022-11-07T01:55:36.854Z,6.82
2022-11-07T01:58:09.487Z,6.88
2022-11-07T02:00:41.050Z,6.93
2022-11-07T02:03:17.665Z,7.01
2022-11-07T02:05:57.530Z,7.05
2022-11-07T02:08:32.576Z,7.12
2022-11-07T02:11:07.964Z,7.14
2022-11-07T02:13:39.513Z,7.19
2022-11-07T02:16:11.152Z,7.19
2022-11-07T02:18:45.010Z,7.21
2022-11-07T02:21:34.436Z,7.22
2022-11-07T02:24:09.023Z,7.22
2022-11-07T02:26:42.238Z,7.26
2022-11-07T02:29:14.049Z,7.23
2022-11-07T02:31:45.617Z,7.28
2022-11-07T02:34:17.230Z,7.35
2022-11-07T02:36:49.429Z,7.42
2022-11-07T02:39:21.168Z,7.46
2022-11-07T02:41:54.816Z,7.49
2022-11-07T02:44:28.197Z,7.53
2022-11-07T02:46:59.798Z,7.55
2022-11-07T02:49:31.437Z,7.60
2022-11-07T02:52:03.061Z,7.63
2022-11-07T02:54:34.706Z,7.69
2022-11-07T02:57:06.238Z,7.71
2022-11-07T02:59:37.909Z,7.70
2022-11-07T03:02:09.963Z,7.74
2022-11-07T03:04:46.572Z,7.78
2022-11-07T03:07:20.544Z,7.79
2022-11-07T03:09:52.133Z,7.75
2022-11-07T03:12:23.700Z,7.77
2022-11-07T03:15:00.415Z,7.81
2022-11-07T03:17:32.041Z,7.87
2022-11-07T03:20:04.511Z,7.83
2022-11-07T03:22:38.387Z,7.86
2022-11-07T03:25:13.040Z,7.89
2022-11-07T03:27:48.607Z,7.88
2022-11-07T03:30:20.208Z,7.91
2022-11-07T03:32:54.328Z,7.95
2022-11-07T03:35:26.379Z,7.98
2022-11-07T03:37:57.987Z,7.96
2022-11-07T03:40:29.609Z,7.94
2022-11-07T03:43:01.181Z,7.93
2022-11-07T03:45:32.840Z,7.86
2022-11-07T03:48:04.492Z,7.86
2022-11-07T03:50:36.184Z,7.84
2022-11-07T03:53:10.459Z,7.80
2022-11-07T03:55:43.370Z,7.71
2022-11-07T03:58:14.939Z,7.68
2022-11-07T04:00:46.539Z,7.71
2022-11-07T04:03:18.219Z,7.69
2022-11-07T04:05:49.861Z,7.68
2022-11-07T04:08:22.574Z,7.68
2022-11-07T04:10:54.260Z,7.67
2022-11-07T04:13:44.566Z,7.66
2022-11-07T04:16:37.459Z,7.65
2022-11-07T04:19:09.042Z,7.63
2022-11-07T04:21:40.636Z,7.57
2022-11-07T04:24:12.220Z,7.50
2022-11-07T04:27:02.374Z,7.45
2022-11-07T04:29:33.970Z,7.42
2022-11-07T04:32:05.627Z,7.42
2022-11-07T04:34:38.613Z,7.42
2022-11-07T04:37:10.229Z,7.44
2022-11-07T04:39:41.794Z,7.45
2022-11-07T04:42:13.399Z,7.46
2022-11-07T04:44:44.967Z,7.43
2022-11-07T04:47:16.532Z,7.39
2022-11-07T04:49:48.158Z,7.43
2022-11-07T04:52:19.704Z,7.45
2022-11-07T04:54:51.224Z,7.48
2022-11-07T04:57:22.853Z,7.52
2022-11-07T04:59:54.434Z,7.54
2022-11-07T05:02:26.233Z,7.54
2022-11-07T05:04:57.920Z,7.52
2022-11-07T05:07:29.504Z,7.49
2022-11-07T05:10:01.130Z,7.40
2022-11-07T05:12:33.137Z,7.36
2022-11-07T05:15:05.216Z,7.32
2022-11-07T05:17:36.912Z,7.31
2022-11-07T05:20:32.752Z,7.30
2022-11-07T05:23:22.096Z,7.24
2022-11-07T05:25:54.768Z,7.17
2022-11-07T05:28:38.613Z,7.14
2022-11-07T05:31:18.121Z,7.14
2022-11-07T05:33:49.731Z,7.11
2022-11-07T05:36:23.609Z,7.11
2022-11-07T05:38:55.155Z,7.11
2022-11-07T05:41:26.756Z,7.11
2022-11-07T05:43:58.756Z,7.10
2022-11-07T05:46:30.369Z,7.07
2022-11-07T05:49:01.927Z,7.05
2022-11-07T05:51:33.518Z,7.04
2022-11-07T05:54:05.168Z,6.99
2022-11-07T05:56:37.528Z,6.98
2022-11-07T05:59:09.471Z,6.95
2022-11-07T06:01:41.521Z,6.90
2022-11-07T06:04:13.166Z,6.84
2022-11-07T06:06:44.809Z,6.76
2022-11-07T06:09:16.412Z,6.72
2022-11-07T06:11:53.859Z,6.67
2022-11-07T06:14:25.471Z,6.64
2022-11-07T06:16:57.074Z,6.63
2022-11-07T06:19:28.647Z,6.59
2022-11-07T06:22:04.043Z,6.56
2022-11-07T06:24:35.620Z,6.52
2022-11-07T06:27:07.280Z,6.62
2022-11-07T06:29:38.863Z,7.31
2022-11-07T06:32:10.548Z,7.90
2022-11-07T06:34:42.176Z,8.11
2022-11-07T06:37:13.729Z,8.90
2022-11-07T06:39:45.360Z,9.64
2022-11-07T06:42:17.011Z,9.57
2022-11-07T06:44:48.599Z,9.81
2022-11-07T06:47:20.326Z,9.60
2022-11-07T06:49:51.919Z,10.22
2022-11-07T06:52:23.528Z,11.54
2022-11-07T06:54:56.154Z,11.98
2022-11-07T06:57:27.775Z,13.01
2022-11-07T06:59:59.563Z,13.59
2022-11-07T07:02:56.725Z,13.18
2022-11-07T07:05:22.865Z,12.62
2022-11-07T07:07:55.636Z,13.46
2022-11-07T07:10:27.417Z,15.30
2022-11-07T07:13:00.111Z,17.14
2022-11-07T07:15:49.396Z,18.81
2022-11-07T07:18:22.478Z,20.21
2022-11-07T07:21:08.283Z,20.13
2022-11-07T07:23:40.526Z,21.21
2022-11-07T07:26:14.699Z,22.23
2022-11-07T07:28:48.663Z,23.34
2022-11-07T07:31:29.234Z,23.87
2022-11-07T07:34:00.860Z,24.70
2022-11-07T07:36:33.223Z,25.69
2022-11-07T07:39:04.871Z,24.98
2022-11-07T07:41:40.403Z,24.54
2022-11-07T07:44:14.117Z,24.63
2022-11-07T07:46:45.699Z,23.54
2022-11-07T07:49:19.705Z,21.89
2022-11-07T07:51:51.446Z,20.57
2022-11-07T07:54:23.032Z,19.55
2022-11-07T07:56:54.704Z,18.48
2022-11-07T07:59:26.299Z,17.27
2022-11-07T08:01:58.089Z,16.78
2022-11-07T08:04:29.787Z,16.57
2022-11-07T08:07:01.464Z,16.30
2022-11-07T08:09:36.593Z,15.93
2022-11-07T08:12:11.711Z,15.57
2022-11-07T08:14:43.345Z,15.35
2022-11-07T08:17:16.947Z,15.10
2022-11-07T08:19:48.495Z,15.35
2022-11-07T08:22:20.173Z,17.56
2022-11-07T08:24:51.785Z,19.49
2022-11-07T08:27:23.711Z,20.75
2022-11-07T08:29:55.389Z,22.16
2022-11-07T08:32:27.951Z,23.38
2022-11-07T08:34:59.583Z,24.06
2022-11-07T08:37:31.221Z,24.55
2022-11-07T08:40:03.582Z,23.91
2022-11-07T08:42:35.190Z,24.56
2022-11-07T08:45:07.384Z,24.89
2022-11-07T08:47:38.992Z,24.92
2022-11-07T08:50:10.591Z,24.61
2022-11-07T08:52:42.160Z,23.98
2022-11-07T08:55:13.759Z,23.53
2022-11-07T08:57:45.427Z,22.95
2022-11-07T09:00:17.276Z,22.62
2022-11-07T09:05:41.215Z,21.11
2022-11-07T09:08:12.898Z,20.34
2022-11-07T09:10:44.619Z,19.68
2022-11-07T09:13:16.501Z,19.09
2022-11-07T09:15:51.493Z,18.56
2022-11-07T09:18:23.634Z,18.81
2022-11-07T09:20:55.531Z,19.41
2022-11-07T09:23:30.359Z,19.93
2022-11-07T09:26:05.045Z,20.22
2022-11-07T09:28:45.757Z,20.12
2022-11-07T09:31:23.591Z,20.26
2022-11-07T09:33:55.235Z,20.60
2022-11-07T09:36:27.013Z,21.00
2022-11-07T09:39:01.083Z,20.97
2022-11-07T09:41:54.119Z,20.66
2022-11-07T09:44:43.763Z,20.71
2022-11-07T09:47:22.364Z,21.02
2022-11-07T09:49:59.526Z,21.17
2022-11-07T09:52:31.719Z,21.29
2022-11-07T09:55:16.977Z,21.20
2022-11-07T09:57:50.310Z,21.84
2022-11-07T10:00:23.097Z,21.64
2022-11-07T10:02:57.291Z,21.24
2022-11-07T10:05:55.153Z,21.40
2022-11-07T10:08:45.487Z,21.44
2022-11-07T10:11:35.530Z,20.95
2022-11-07T10:14:17.405Z,20.89
2022-11-07T10:17:02.808Z,21.17
2022-11-07T10:20:02.196Z,21.64
2022-11-07T10:22:58.885Z,22.14
2022-11-07T10:25:39.470Z,22.09
2022-11-07T10:28:16.910Z,21.96
2022-11-07T10:30:51.303Z,21.66
2022-11-07T10:33:32.779Z,21.70
2022-11-07T10:36:24.893Z,21.57
2022-11-07T10:38:56.754Z,21.61
2022-11-07T10:41:31.778Z,21.35
2022-11-07T10:44:13.576Z,21.44
2022-11-07T10:46:50.058Z,21.53
2022-11-07T10:49:29.173Z,21.45
2022-11-07T10:52:18.451Z,21.31
2022-11-07T10:54:50.254Z,20.54
2022-11-07T10:57:23.523Z,19.91
2022-11-07T10:59:57.473Z,19.56
2022-11-07T11:02:31.403Z,19.68
2022-11-07T11:05:04.241Z,19.96
2022-11-07T11:07:39.860Z,20.05
2022-11-07T11:10:18.560Z,19.87
2022-11-07T11:12:50.466Z,19.77
2022-11-07T11:15:25.033Z,19.09
2022-11-07T11:18:02.729Z,18.58
2022-11-07T11:20:44.762Z,18.19
2022-11-07T11:23:22.256Z,18.11
2022-11-07T11:26:01.451Z,18.27
2022-11-07T11:28:39.082Z,18.12
2022-11-07T11:31:21.763Z,18.02
2022-11-07T11:34:19.493Z,18.14
2022-11-07T11:37:01.787Z,18.47
2022-11-07T11:39:58.256Z,18.61
2022-11-07T11:42:51.178Z,18.63
2022-11-07T11:45:40.576Z,18.41
2022-11-07T11:48:25.592Z,18.27
2022-11-07T11:51:02.338Z,18.06
2022-11-07T11:53:34.108Z,17.95
2022-11-07T11:56:08.938Z,17.74
2022-11-07T11:59:24.320Z,17.66
2022-11-07T12:02:01.593Z,17.64
2022-11-07T12:05:22.468Z,17.62
2022-11-07T12:08:12.870Z,17.45
2022-11-07T12:11:05.618Z,17.26
2022-11-07T12:13:49.677Z,16.99
2022-11-07T12:16:51.125Z,16.83
2022-11-07T12:19:41.252Z,16.86
2022-11-07T12:22:28.912Z,16.82
2022-11-07T12:25:08.648Z,17.06
2022-11-07T12:27:54.274Z,17.32
2022-11-07T12:30:50.215Z,17.59
2022-11-07T12:33:45.338Z,17.88
2022-11-07T12:36:29.452Z,18.10
2022-11-07T12:39:19.376Z,18.24
2022-11-07T12:41:57.718Z,18.43
2022-11-07T12:44:38.068Z,18.27
2022-11-07T12:47:38.416Z,18.18
2022-11-07T12:50:16.422Z,18.14
2022-11-07T12:53:11.972Z,18.00
2022-11-07T12:56:00.444Z,17.80
2022-11-07T12:58:35.337Z,17.79
2022-11-07T13:01:07.921Z,17.74
2022-11-07T13:03:50.220Z,17.73
2022-11-07T13:06:30.852Z,17.70
2022-11-07T13:09:11.383Z,17.65
2022-11-07T13:12:22.155Z,17.61
2022-11-07T13:14:54.589Z,17.61
2022-11-07T13:17:37.647Z,17.55
2022-11-07T13:20:21.276Z,17.74
2022-11-07T13:22:55.541Z,17.82
2022-11-07T13:25:32.892Z,17.78
2022-11-07T13:28:26.799Z,17.58
2022-11-07T13:31:03.567Z,17.39
2022-11-07T13:33:38.277Z,17.30
2022-11-07T13:36:14.536Z,17.26
2022-11-07T13:38:53.247Z,17.15
2022-11-07T13:41:25.348Z,17.07
2022-11-07T13:44:01.379Z,16.91
2022-11-07T13:46:43.017Z,16.71
2022-11-07T13:49:20.714Z,16.53
2022-11-07T13:51:54.183Z,16.43
2022-11-07T13:54:39.280Z,16.32
2022-11-07T13:57:17.932Z,16.16
2022-11-07T14:00:14.440Z,16.08
2022-11-07T14:02:54.842Z,15.98
2022-11-07T14:05:36.284Z,15.96
2022-11-07T14:08:25.713Z,15.86
2022-11-07T14:10:57.567Z,15.81
2022-11-07T14:13:40.672Z,15.69
2022-11-07T14:16:27.247Z,15.69
2022-11-07T14:19:15.760Z,15.69
2022-11-07T14:21:47.523Z,15.64
2022-11-07T14:24:23.876Z,15.53
2022-11-07T14:27:00.919Z,15.31
2022-11-07T14:29:32.624Z,15.24
2022-11-07T14:32:07.373Z,15.21
2022-11-07T14:34:45.216Z,15.08
2022-11-07T14:37:20.588Z,15.03
2022-11-07T14:39:52.697Z,15.03
2022-11-07T14:42:25.356Z,15.04
2022-11-07T14:44:57.818Z,15.00
2022-11-07T14:47:33.033Z,14.95
2022-11-07T14:50:05.993Z,14.90
2022-11-07T14:52:40.662Z,14.88
2022-11-07T14:55:20.724Z,14.84
2022-11-07T14:57:52.536Z,14.76
2022-11-07T15:00:24.431Z,14.68
2022-11-07T15:02:57.884Z,14.60
2022-11-07T15:05:38.258Z,14.50
2022-11-07T15:08:27.737Z,14.41
2022-11-07T15:11:26.975Z,14.33
2022-11-07T15:14:04.090Z,14.26
2022-11-07T15:16:45.849Z,14.19
2022-11-07T15:19:23.379Z,14.16
2022-11-07T15:22:00.985Z,14.13
2022-11-07T15:24:40.174Z,14.09
2022-11-07T15:27:18.754Z,14.06
2022-11-07T15:29:59.007Z,13.99
2022-11-07T15:32:35.233Z,13.96
2022-11-07T15:35:43.021Z,13.93
2022-11-07T15:38:17.417Z,13.89
2022-11-07T15:40:49.936Z,13.86
2022-11-07T15:43:22.172Z,13.83
2022-11-07T15:45:54.139Z,13.80
2022-11-07T15:48:36.909Z,13.77
2022-11-07T15:51:12.015Z,13.73
2022-11-07T15:53:43.691Z,13.73
2022-11-07T15:56:17.340Z,13.68
2022-11-07T15:58:49.656Z,13.67
2022-11-07T16:01:22.920Z,13.66
2022-11-07T16:03:55.375Z,13.63
2022-11-07T16:06:33.434Z,13.59
2022-11-07T16:09:13.326Z,13.53
2022-11-07T16:11:45.769Z,13.47
2022-11-07T16:14:42.778Z,13.41
2022-11-07T16:17:16.752Z,13.33
2022-11-07T16:19:48.395Z,13.29
2022-11-07T16:22:20.102Z,13.23
2022-11-07T16:24:51.677Z,13.19
2022-11-07T16:27:23.463Z,13.13
2022-11-07T16:29:55.046Z,13.05
2022-11-07T16:32:26.702Z,13.00
2022-11-07T16:34:58.304Z,12.95
2022-11-07T16:37:29.949Z,12.91
2022-11-07T16:40:01.518Z,12.85
2022-11-07T16:42:33.419Z,12.78
2022-11-07T16:45:05.413Z,12.73
2022-11-07T16:47:38.644Z,12.68
2022-11-07T16:50:13.732Z,12.66
2022-11-07T16:52:45.425Z,12.62
2022-11-07T16:55:18.490Z,12.61
2022-11-07T16:57:50.161Z,12.58
2022-11-07T17:00:23.619Z,12.57
2022-11-07T17:02:55.313Z,12.55
2022-11-07T17:05:27.074Z,12.51
2022-11-07T17:08:01.307Z,12.45
2022-11-07T17:10:35.718Z,12.41
2022-11-07T17:13:07.703Z,12.35
2022-11-07T17:15:40.964Z,12.31
2022-11-07T17:18:21.042Z,12.24
2022-11-07T17:20:54.082Z,12.20
2022-11-07T17:23:30.195Z,12.15
2022-11-07T17:26:02.817Z,12.10
2022-11-07T17:28:34.441Z,12.07
2022-11-07T17:31:06.010Z,12.04
2022-11-07T17:33:37.646Z,12.00
2022-11-07T17:36:23.784Z,11.99
2022-11-07T17:38:58.548Z,11.95
2022-11-07T17:41:30.536Z,11.88
2022-11-07T17:44:03.732Z,11.85
2022-11-07T17:46:36.489Z,11.81
2022-11-07T17:49:09.053Z,11.78
2022-11-07T17:51:42.052Z,11.79
2022-11-07T17:54:15.090Z,11.81
2022-11-07T17:56:46.712Z,11.83
2022-11-07T17:59:18.819Z,11.83
2022-11-07T18:01:50.516Z,11.82
2022-11-07T18:04:22.213Z,11.82
2022-11-07T18:06:53.809Z,11.83
2022-11-07T18:09:26.009Z,11.81
2022-11-07T18:11:57.577Z,11.83
2022-11-07T18:14:29.188Z,11.85
2022-11-07T18:17:01.195Z,11.86
2022-11-07T18:19:33.069Z,11.86
2022-11-07T18:22:04.739Z,11.87
2022-11-07T18:24:36.461Z,11.89
2022-11-07T18:27:10.416Z,11.88
2022-11-07T18:29:42.507Z,11.87
2022-11-07T18:32:14.244Z,11.88
2022-11-07T18:34:45.885Z,11.92
2022-11-07T18:37:18.785Z,11.92
2022-11-07T18:39:50.695Z,11.94
2022-11-07T18:42:22.570Z,11.96
2022-11-07T18:44:54.183Z,11.98
2022-11-07T18:47:25.835Z,12.00
2022-11-07T18:49:57.713Z,11.99
2022-11-07T18:52:31.442Z,12.02
2022-11-07T18:55:03.343Z,12.02
2022-11-07T18:57:35.253Z,12.03
2022-11-07T19:00:12.235Z,12.03
2022-11-07T19:02:47.832Z,12.03
2022-11-07T19:05:20.234Z,12.02
2022-11-07T19:07:53.152Z,12.01
2022-11-07T19:10:25.278Z,11.99
2022-11-07T19:12:57.124Z,11.95
2022-11-07T19:15:30.629Z,11.90
2022-11-07T19:18:02.214Z,11.86
2022-11-07T19:20:33.857Z,11.82
2022-11-07T19:23:08.355Z,11.79
2022-11-07T19:25:41.408Z,11.76
2022-11-07T19:28:12.981Z,11.78
2022-11-07T19:30:44.880Z,11.78
2022-11-07T19:33:20.559Z,11.79
2022-11-07T19:36:00.214Z,11.78
2022-11-07T19:38:31.857Z,11.82
2022-11-07T19:41:05.872Z,11.87
2022-11-07T19:43:42.521Z,11.88
2022-11-07T19:46:24.775Z,11.91
2022-11-07T19:48:56.699Z,11.95
2022-11-07T19:51:28.308Z,11.96
2022-11-07T19:54:00.652Z,11.94
2022-11-07T19:56:32.298Z,11.96
2022-11-07T19:59:03.871Z,11.96
2022-11-07T20:01:36.375Z,11.96
2022-11-07T20:04:08.867Z,11.97
2022-11-07T20:06:40.567Z,11.96
2022-11-07T20:09:12.937Z,11.97
2022-11-07T20:11:44.556Z,11.99
2022-11-07T20:14:16.131Z,12.00
2022-11-07T20:16:47.819Z,12.04
2022-11-07T20:19:19.419Z,12.05
2022-11-07T20:21:53.948Z,12.04
2022-11-07T20:24:25.551Z,12.04
2022-11-07T20:26:57.250Z,12.06
2022-11-07T20:29:28.873Z,12.07
2022-11-07T20:32:00.522Z,12.06
2022-11-07T20:34:32.149Z,12.06
2022-11-07T20:37:04.204Z,12.07
2022-11-07T20:39:35.965Z,12.07
2022-11-07T20:42:07.652Z,12.01
2022-11-07T20:44:40.660Z,11.96
2022-11-07T20:47:12.405Z,11.97
2022-11-07T20:49:43.988Z,11.98
2022-11-07T20:52:17.633Z,12.00
2022-11-07T20:54:49.281Z,11.96
2022-11-07T20:57:20.915Z,11.95
2022-11-07T20:59:52.648Z,11.96
2022-11-07T21:02:24.441Z,11.92
2022-11-07T21:05:16.664Z,11.90
2022-11-07T21:07:48.353Z,11.86
2022-11-07T21:10:20.122Z,11.87
2022-11-07T21:12:51.787Z,11.87
2022-11-07T21:15:23.450Z,11.84
2022-11-07T21:17:55.080Z,11.82
2022-11-07T21:20:26.679Z,11.81
2022-11-07T21:22:58.294Z,11.82
2022-11-07T21:25:30.159Z,11.79
2022-11-07T21:28:01.796Z,11.76
2022-11-07T21:30:33.378Z,11.72
2022-11-07T21:33:05.311Z,11.65
2022-11-07T21:35:40.659Z,11.58
2022-11-07T21:38:12.277Z,11.54
2022-11-07T21:40:43.838Z,11.51
2022-11-07T21:43:15.980Z,11.48
2022-11-07T21:45:47.807Z,11.47
2022-11-07T21:48:19.460Z,11.45
2022-11-07T21:50:51.098Z,11.42
2022-11-07T21:53:22.768Z,11.37
2022-11-07T21:55:54.338Z,11.33
2022-11-07T21:58:26.820Z,11.29
2022-11-07T22:01:05.458Z,11.22
2022-11-07T22:04:04.447Z,11.19
2022-11-07T22:06:29.234Z,11.20
2022-11-07T22:09:01.139Z,11.17
2022-11-07T22:11:33.052Z,11.12
2022-11-07T22:14:05.305Z,11.09
2022-11-07T22:16:36.934Z,11.09
2022-11-07T22:19:12.544Z,11.07
2022-11-07T22:21:44.751Z,11.03
2022-11-07T22:24:16.418Z,10.94
2022-11-07T22:26:48.031Z,10.92
2022-11-07T22:29:19.680Z,10.89
2022-11-07T22:31:51.600Z,10.86
2022-11-07T22:34:23.264Z,10.84
2022-11-07T22:36:54.911Z,10.81
2022-11-07T22:39:26.561Z,10.77
2022-11-07T22:41:58.158Z,10.74
2022-11-07T22:44:29.883Z,10.66
2022-11-07T22:47:01.479Z,10.62
2022-11-07T22:49:33.090Z,10.59
2022-11-07T22:52:04.989Z,10.54
2022-11-07T22:54:36.759Z,10.52
2022-11-07T22:57:08.411Z,10.48
2022-11-07T22:59:39.999Z,10.42
2022-11-07T23:02:11.696Z,10.38
2022-11-07T23:04:43.451Z,10.35
2022-11-07T23:07:15.105Z,10.33
2022-11-07T23:09:46.702Z,10.31
2022-11-07T23:12:18.285Z,10.29
2022-11-07T23:14:49.947Z,10.28
2022-11-07T23:17:22.728Z,10.27
2022-11-07T23:19:54.869Z,10.28
2022-11-07T23:22:31.216Z,10.29
2022-11-07T23:25:04.168Z,10.25
2022-11-07T23:27:35.849Z,10.23
2022-11-07T23:30:08.029Z,10.22
2022-11-07T23:32:41.109Z,10.20
2022-11-07T23:35:12.830Z,10.19
2022-11-07T23:37:44.509Z,10.16
2022-11-07T23:40:19.124Z,10.14
2022-11-07T23:42:51.063Z,10.13
2022-11-07T23:45:41.794Z,10.12
2022-11-07T23:48:32.651Z,10.11
2022-11-07T23:51:08.983Z,10.05
2022-11-07T23:53:58.999Z,10.05
2022-11-07T23:56:30.647Z,10.02
2022-11-07T23:59:20.972Z,10.05
